FCO weather

Leonardo da Vinci–Fiumicino Airport
Rome, Lazio, Italy

Public forecast

Using degrees Celsius for public forecast. Weather courtesy of forecast.io.

Current aviation weather report (METAR) for Leonardo da Vinci–Fiumicino Airport

Retrieved 2020/08/07 23:50 UTC (14 minutes ago):

LIRF 072350Z 31004KT 260V050 CAVOK 24/15 Q1015 NOSIG

Aviation forecast (TAF) for Leonardo da Vinci–Fiumicino Airport

Retrieved 2020-08-08 00:00 UTC (4 minutes ago):

TAF LIRF 072300Z 0800/0906 03009KT CAVOK BECMG 0810/0812 32013KT BECMG 0817/0819 04007KT